METAR Data
IDs: Format: Raw Decoded Include TAF

Data at: 1120 UTC 07 Dec 2022

KVLD 071104Z AUTO 00000KT 1/4SM FG VV002 13/13 A3028 RMK AO2 T01330128 $